Time;durP1;ratioP1;P1;durP2;ratioP2;P2;SDS_P1;SDS_P2;PMS_P1;PMS_P2;Temp;Humidity;BMP_temperature;BMP_pressure;BME280_temperature;BME280_humidity;BME280_pressure;Samples;Min_cycle;Max_cycle;Signal;HPM_P1;HPM_P2
2021/12/15 00:00:57;;;;;;;96.28;34.83;;;;;;;;;;5080989;28;20043;-60
2021/12/15 00:03:24;;;;;;;101.75;33.83;;;;;;;;;;5090124;28;20087;-60
2021/12/15 00:05:51;;;;;;;109.00;34.95;;;;;;;;;;5081498;28;20614;-61
2021/12/15 00:08:18;;;;;;;94.28;33.53;;;;;;;;;;5095833;28;20044;-61
2021/12/15 00:10:46;;;;;;;95.57;33.83;;;;;;;;;;5094136;28;20095;-60
2021/12/15 00:13:13;;;;;;;91.35;35.25;;;;;;;;;;5096077;28;20079;-60
2021/12/15 00:15:40;;;;;;;97.20;35.92;;;;;;;;;;5095933;28;20047;-60
2021/12/15 00:18:06;;;;;;;101.78;36.63;;;;;;;;;;5094887;28;20048;-60
2021/12/15 00:20:33;;;;;;;96.47;35.25;;;;;;;;;;5095940;28;20127;-61
2021/12/15 00:22:59;;;;;;;91.93;33.65;;;;;;;;;;5079075;28;20399;-60
2021/12/15 00:25:28;;;;;;;114.00;34.28;;;;;;;;;;5074795;28;20076;-60
2021/12/15 00:27:54;;;;;;;90.28;33.15;;;;;;;;;;5075362;28;20132;-60
2021/12/15 00:30:21;;;;;;;87.88;32.25;;;;;;;;;;5090230;28;20082;-61
2021/12/15 00:32:48;;;;;;;90.25;32.78;;;;;;;;;;5075345;28;20044;-60
2021/12/15 00:35:14;;;;;;;98.70;30.38;;;;;;;;;;5075227;28;20446;-60
2021/12/15 00:37:41;;;;;;;87.88;31.45;;;;;;;;;;5074251;28;20112;-60
2021/12/15 00:40:09;;;;;;;107.88;33.05;;;;;;;;;;5075830;28;20041;-60
2021/12/15 00:42:36;;;;;;;93.05;32.95;;;;;;;;;;5074004;28;20056;-60
2021/12/15 00:45:02;;;;;;;104.65;32.85;;;;;;;;;;5074389;28;20079;-60
2021/12/15 00:47:28;;;;;;;91.95;30.38;;;;;;;;;;5075045;28;20071;-60
2021/12/15 00:49:55;;;;;;;91.53;29.85;;;;;;;;;;5086371;28;20101;-60
2021/12/15 00:52:21;;;;;;;89.80;31.17;;;;;;;;;;5092203;28;20036;-60
2021/12/15 00:54:47;;;;;;;90.82;30.35;;;;;;;;;;5085023;28;20048;-60
2021/12/15 00:57:13;;;;;;;91.07;30.27;;;;;;;;;;5087432;28;20047;-60
2021/12/15 00:59:40;;;;;;;95.80;31.33;;;;;;;;;;5092085;28;20043;-61
2021/12/15 01:02:07;;;;;;;89.18;29.70;;;;;;;;;;5083972;28;20040;-61
2021/12/15 01:04:34;;;;;;;84.20;29.40;;;;;;;;;;5080742;28;20395;-60
2021/12/15 01:07:03;;;;;;;90.65;32.42;;;;;;;;;;5081270;28;20404;-60
2021/12/15 01:09:34;;;;;;;91.97;31.45;;;;;;;;;;5088839;28;20460;-60
2021/12/15 01:19:46;;;;;;;94.50;32.42;;;;;;;;;;5086826;28;20430;-60
2021/12/15 01:20:06;;;;;;;108.78;32.03;;;;;;;;;;5085960;28;20055;-60
2021/12/15 01:22:34;;;;;;;95.00;33.03;;;;;;;;;;5091392;28;20052;-60
2021/12/15 01:25:04;;;;;;;92.38;32.40;;;;;;;;;;5088651;28;20040;-60
2021/12/15 01:27:30;;;;;;;105.45;34.15;;;;;;;;;;5089139;28;20480;-60
2021/12/15 01:29:57;;;;;;;103.88;33.83;;;;;;;;;;5090694;28;20040;-61
2021/12/15 01:32:23;;;;;;;100.20;33.65;;;;;;;;;;5089718;28;20062;-60
2021/12/15 01:34:50;;;;;;;102.20;34.70;;;;;;;;;;5091616;28;20387;-60
2021/12/15 01:37:17;;;;;;;99.88;33.83;;;;;;;;;;5089897;28;20052;-61
2021/12/15 01:39:44;;;;;;;97.07;34.35;;;;;;;;;;5087878;28;20048;-60
2021/12/15 01:42:11;;;;;;;101.15;33.58;;;;;;;;;;5086311;28;20071;-61
2021/12/15 01:47:28;;;;;;;109.05;35.22;;;;;;;;;;5086595;28;20113;-61
2021/12/15 01:49:54;;;;;;;106.53;36.55;;;;;;;;;;5091510;28;20036;-60
2021/12/15 01:52:27;;;;;;;105.60;36.20;;;;;;;;;;5091671;28;20032;-61
2021/12/15 01:54:55;;;;;;;116.50;37.90;;;;;;;;;;5091211;28;20047;-60
2021/12/15 01:57:23;;;;;;;119.38;38.50;;;;;;;;;;5081477;28;20493;-61
2021/12/15 01:59:50;;;;;;;123.25;39.00;;;;;;;;;;5090100;28;20040;-60
2021/12/15 02:02:17;;;;;;;116.97;39.95;;;;;;;;;;5085168;28;20182;-60
2021/12/15 02:04:43;;;;;;;119.65;39.53;;;;;;;;;;5088277;28;20051;-60
2021/12/15 02:07:12;;;;;;;123.38;41.78;;;;;;;;;;5081680;28;20045;-60
2021/12/15 02:12:10;;;;;;;130.52;39.65;;;;;;;;;;5085740;28;20040;-60
2021/12/15 02:14:37;;;;;;;124.07;40.53;;;;;;;;;;5077392;28;20044;-61
2021/12/15 02:17:03;;;;;;;121.10;39.38;;;;;;;;;;5085137;28;20135;-60
2021/12/15 02:19:30;;;;;;;115.93;39.63;;;;;;;;;;5087758;28;20199;-60
2021/12/15 02:21:58;;;;;;;110.95;38.50;;;;;;;;;;5089551;28;20127;-60
2021/12/15 02:24:25;;;;;;;109.43;39.42;;;;;;;;;;5085887;28;20054;-60
2021/12/15 02:26:57;;;;;;;109.60;39.92;;;;;;;;;;5090941;28;20032;-61
2021/12/15 02:29:24;;;;;;;102.53;37.75;;;;;;;;;;5091175;28;20122;-60
2021/12/15 02:34:33;;;;;;;118.30;39.97;;;;;;;;;;5089662;28;20556;-60
2021/12/15 02:37:15;;;;;;;104.00;38.30;;;;;;;;;;5082717;28;20127;-60
2021/12/15 02:39:42;;;;;;;123.15;40.33;;;;;;;;;;5088724;28;20380;-60
2021/12/15 02:42:08;;;;;;;117.57;38.40;;;;;;;;;;5083873;28;20056;-60
2021/12/15 02:44:35;;;;;;;103.57;38.08;;;;;;;;;;5090045;28;20040;-60
2021/12/15 02:47:01;;;;;;;106.95;38.75;;;;;;;;;;5085831;28;20039;-61
2021/12/15 02:49:28;;;;;;;107.35;37.88;;;;;;;;;;5090776;28;20058;-61
2021/12/15 02:51:56;;;;;;;98.93;38.83;;;;;;;;;;5096351;28;20507;-60
2021/12/15 02:54:23;;;;;;;101.22;37.90;;;;;;;;;;5088109;28;20045;-61
2021/12/15 02:56:52;;;;;;;104.63;38.33;;;;;;;;;;5091838;28;20050;-60
2021/12/15 02:59:21;;;;;;;125.57;42.88;;;;;;;;;;5086119;28;20467;-60
2021/12/15 03:02:10;;;;;;;99.57;39.10;;;;;;;;;;5088272;28;20435;-60
2021/12/15 03:04:48;;;;;;;99.35;37.10;;;;;;;;;;5088396;28;20047;-61
2021/12/15 03:07:26;;;;;;;101.70;38.15;;;;;;;;;;5087369;28;20055;-61
2021/12/15 03:15:30;;;;;;;125.03;42.45;;;;;;;;;;5089143;28;20522;-61
2021/12/15 03:17:56;;;;;;;;;;;;;;;;;;5083851;28;20134;-60
2021/12/15 03:20:22;;;;;;;115.15;39.35;;;;;;;;;;5087188;28;20038;-60
2021/12/15 03:22:50;;;;;;;114.20;41.97;;;;;;;;;;5075926;28;20040;-60
2021/12/15 03:25:16;;;;;;;116.65;39.92;;;;;;;;;;5082302;28;20114;-60
2021/12/15 03:33:36;;;;;;;118.32;41.88;;;;;;;;;;5074223;28;20051;-60
2021/12/15 03:36:08;;;;;;;128.48;42.47;;;;;;;;;;5084658;28;20047;-61
2021/12/15 03:38:35;;;;;;;114.53;41.70;;;;;;;;;;5087620;28;20059;-61
2021/12/15 03:41:02;;;;;;;129.48;42.22;;;;;;;;;;5086930;28;20043;-61
2021/12/15 03:43:30;;;;;;;121.82;44.03;;;;;;;;;;5088703;28;20123;-60
2021/12/15 03:45:59;;;;;;;122.35;44.22;;;;;;;;;;5089503;28;20537;-61
2021/12/15 03:48:27;;;;;;;131.63;42.80;;;;;;;;;;5087897;28;20055;-60
2021/12/15 03:50:56;;;;;;;130.63;42.95;;;;;;;;;;5085672;28;20047;-61
2021/12/15 03:53:22;;;;;;;116.22;42.22;;;;;;;;;;5086848;28;20076;-60
2021/12/15 03:55:49;;;;;;;128.10;41.25;;;;;;;;;;5089224;28;20028;-60
2021/12/15 03:58:17;;;;;;;116.30;39.53;;;;;;;;;;5087600;28;20403;-60
2021/12/15 04:00:46;;;;;;;121.35;39.17;;;;;;;;;;5085947;28;20491;-61
2021/12/15 04:03:17;;;;;;;109.80;39.47;;;;;;;;;;5083371;28;20032;-60
2021/12/15 04:05:43;;;;;;;116.15;40.15;;;;;;;;;;5087583;28;20082;-61
2021/12/15 04:08:09;;;;;;;112.25;41.58;;;;;;;;;;5084683;28;20105;-60
2021/12/15 04:10:36;;;;;;;120.18;40.05;;;;;;;;;;5090088;28;20048;-61
2021/12/15 04:13:02;;;;;;;107.60;39.55;;;;;;;;;;5085532;28;20043;-60
2021/12/15 04:15:31;;;;;;;105.55;38.65;;;;;;;;;;5088843;28;20164;-61
2021/12/15 04:17:59;;;;;;;105.57;38.95;;;;;;;;;;5086567;28;20098;-61
2021/12/15 04:20:29;;;;;;;104.60;38.17;;;;;;;;;;5082387;28;20577;-60
2021/12/15 04:22:56;;;;;;;99.43;37.85;;;;;;;;;;5086289;28;20040;-61
2021/12/15 04:25:24;;;;;;;119.35;39.85;;;;;;;;;;5086998;28;20052;-60
2021/12/15 04:27:52;;;;;;;113.65;39.90;;;;;;;;;;5088276;28;20051;-60
2021/12/15 04:30:19;;;;;;;106.60;38.90;;;;;;;;;;5101241;28;20538;-60
2021/12/15 04:32:46;;;;;;;107.35;37.47;;;;;;;;;;5077825;28;20044;-60
2021/12/15 04:35:13;;;;;;;105.25;37.67;;;;;;;;;;5080689;28;20037;-61
2021/12/15 04:37:41;;;;;;;117.72;37.95;;;;;;;;;;5089176;28;20044;-60
2021/12/15 04:40:08;;;;;;;110.82;38.15;;;;;;;;;;5090617;28;20075;-61
2021/12/15 04:42:37;;;;;;;109.80;38.03;;;;;;;;;;5090836;28;20028;-61
2021/12/15 04:45:04;;;;;;;110.43;38.53;;;;;;;;;;5090070;28;20051;-60
2021/12/15 04:47:30;;;;;;;111.18;37.90;;;;;;;;;;5091204;28;20119;-60
2021/12/15 04:49:57;;;;;;;110.20;38.10;;;;;;;;;;5087387;28;20040;-60
2021/12/15 04:52:27;;;;;;;101.13;38.45;;;;;;;;;;5087896;28;20480;-61
2021/12/15 04:54:54;;;;;;;103.57;37.40;;;;;;;;;;5084416;28;20074;-60
2021/12/15 04:57:21;;;;;;;105.53;38.22;;;;;;;;;;5090641;28;20388;-61
2021/12/15 04:59:47;;;;;;;101.50;36.67;;;;;;;;;;5090682;28;20395;-60
2021/12/15 05:02:15;;;;;;;108.65;37.42;;;;;;;;;;5092896;28;20040;-61
2021/12/15 05:04:41;;;;;;;106.40;38.67;;;;;;;;;;5081434;28;20040;-61
2021/12/15 05:07:07;;;;;;;109.03;38.70;;;;;;;;;;5094629;28;20067;-60
2021/12/15 05:09:34;;;;;;;102.60;38.25;;;;;;;;;;5087923;28;20044;-60
2021/12/15 05:12:00;;;;;;;112.85;37.53;;;;;;;;;;5090470;28;20040;-60
2021/12/15 05:14:26;;;;;;;106.93;37.75;;;;;;;;;;5094892;28;20063;-60
2021/12/15 05:16:53;;;;;;;102.78;35.20;;;;;;;;;;5094926;28;20078;-60
2021/12/15 05:19:20;;;;;;;106.88;37.88;;;;;;;;;;5093909;28;20044;-60
2021/12/15 05:21:50;;;;;;;98.47;36.25;;;;;;;;;;5087550;28;20492;-60
2021/12/15 05:24:30;;;;;;;111.65;37.00;;;;;;;;;;5074331;28;20559;-60
2021/12/15 05:26:59;;;;;;;104.97;36.72;;;;;;;;;;5073610;28;20108;-60
2021/12/15 05:29:25;;;;;;;101.28;36.85;;;;;;;;;;5074582;28;20044;-60
2021/12/15 05:31:52;;;;;;;118.95;37.08;;;;;;;;;;5074462;28;20040;-60
2021/12/15 05:34:20;;;;;;;118.28;37.60;;;;;;;;;;5072073;28;20063;-60
2021/12/15 05:36:46;;;;;;;105.22;38.10;;;;;;;;;;5074248;28;20048;-60
2021/12/15 05:39:12;;;;;;;103.90;36.10;;;;;;;;;;5074147;28;20408;-60
2021/12/15 05:41:39;;;;;;;112.10;38.05;;;;;;;;;;5073314;28;20049;-61
2021/12/15 05:44:06;;;;;;;111.10;40.47;;;;;;;;;;5073408;28;20048;-60
2021/12/15 05:46:32;;;;;;;113.20;38.17;;;;;;;;;;5071928;28;20119;-60
2021/12/15 05:48:59;;;;;;;122.07;37.72;;;;;;;;;;5073107;28;20045;-61
2021/12/15 05:51:25;;;;;;;106.38;35.83;;;;;;;;;;5086868;28;20182;-60
2021/12/15 05:53:51;;;;;;;109.28;37.42;;;;;;;;;;5088884;28;20048;-61
2021/12/15 05:56:18;;;;;;;110.47;38.25;;;;;;;;;;5084535;28;20032;-60
2021/12/15 05:58:45;;;;;;;112.25;38.53;;;;;;;;;;5083507;28;20044;-60
2021/12/15 06:01:11;;;;;;;113.82;38.75;;;;;;;;;;5086360;28;20064;-61
2021/12/15 06:03:38;;;;;;;104.07;39.08;;;;;;;;;;5087733;28;20458;-61
2021/12/15 06:06:05;;;;;;;121.10;39.92;;;;;;;;;;5085509;28;20056;-61
2021/12/15 06:08:31;;;;;;;128.32;41.15;;;;;;;;;;5087739;28;20412;-60
2021/12/15 06:10:57;;;;;;;123.03;40.50;;;;;;;;;;5084411;28;20058;-61
2021/12/15 06:13:26;;;;;;;128.15;41.22;;;;;;;;;;5076266;28;20127;-68
2021/12/15 06:15:53;;;;;;;114.25;39.53;;;;;;;;;;5078661;28;20767;-61
2021/12/15 06:18:20;;;;;;;117.88;42.03;;;;;;;;;;5081287;28;20066;-61
2021/12/15 06:20:47;;;;;;;109.10;41.03;;;;;;;;;;5080318;28;20044;-61
2021/12/15 06:23:22;;;;;;;108.22;40.08;;;;;;;;;;5084412;28;20475;-61
2021/12/15 06:25:51;;;;;;;101.10;38.33;;;;;;;;;;5088164;28;20082;-60
2021/12/15 06:28:17;;;;;;;112.28;37.65;;;;;;;;;;5085895;28;20056;-60
2021/12/15 06:30:44;;;;;;;115.45;37.95;;;;;;;;;;5086526;28;20063;-61
2021/12/15 06:33:11;;;;;;;100.22;37.50;;;;;;;;;;5090490;28;20051;-60
2021/12/15 06:35:37;;;;;;;99.78;36.13;;;;;;;;;;5096071;28;20074;-61
2021/12/15 06:38:04;;;;;;;94.05;35.20;;;;;;;;;;5091138;28;20037;-61
2021/12/15 06:40:31;;;;;;;106.15;33.17;;;;;;;;;;5084932;28;20051;-61
2021/12/15 06:42:57;;;;;;;85.70;33.78;;;;;;;;;;5090763;28;20040;-61
2021/12/15 06:45:35;;;;;;;89.72;33.15;;;;;;;;;;5089082;28;20046;-61
2021/12/15 06:59:00;;;;;;;90.90;31.20;;;;;;;;;;5074809;28;20440;-61
2021/12/15 07:01:26;;;;;;;85.95;30.00;;;;;;;;;;5074828;28;20048;-61
2021/12/15 07:03:53;;;;;;;79.80;29.40;;;;;;;;;;5089951;28;20139;-61
2021/12/15 07:06:19;;;;;;;85.30;31.52;;;;;;;;;;5086626;28;20202;-61
2021/12/15 07:08:45;;;;;;;86.80;30.77;;;;;;;;;;5079879;28;20044;-61
2021/12/15 07:11:12;;;;;;;87.40;31.58;;;;;;;;;;5077452;28;20028;-60
2021/12/15 07:13:39;;;;;;;82.82;29.50;;;;;;;;;;5080416;28;20371;-60
2021/12/15 07:16:08;;;;;;;80.85;29.55;;;;;;;;;;5087139;28;20101;-60
2021/12/15 07:18:40;;;;;;;82.32;28.85;;;;;;;;;;5083054;28;20067;-61
2021/12/15 07:21:09;;;;;;;87.88;30.23;;;;;;;;;;5083387;28;20036;-60
2021/12/15 07:23:36;;;;;;;72.43;26.38;;;;;;;;;;5083900;28;20562;-60
2021/12/15 07:26:02;;;;;;;78.78;27.33;;;;;;;;;;5087366;28;20036;-60
2021/12/15 07:28:29;;;;;;;73.88;27.58;;;;;;;;;;5090090;28;20124;-60
2021/12/15 07:30:55;;;;;;;67.85;25.77;;;;;;;;;;5070936;28;20050;-60
2021/12/15 07:33:22;;;;;;;68.65;24.67;;;;;;;;;;5084309;28;20032;-61
2021/12/15 07:35:49;;;;;;;61.15;23.90;;;;;;;;;;5087403;28;20024;-61
2021/12/15 07:38:15;;;;;;;52.78;22.67;;;;;;;;;;5098285;28;20415;-60
2021/12/15 07:40:41;;;;;;;45.85;22.60;;;;;;;;;;5088040;28;20122;-61
2021/12/15 07:43:11;;;;;;;43.85;18.13;;;;;;;;;;5090094;28;20043;-60
2021/12/15 07:45:45;;;;;;;49.00;18.52;;;;;;;;;;5085134;28;20148;-60
2021/12/15 07:48:13;;;;;;;56.50;19.90;;;;;;;;;;5084243;28;20193;-61
2021/12/15 07:50:41;;;;;;;39.70;17.00;;;;;;;;;;5078824;28;20045;-61
2021/12/15 07:53:07;;;;;;;43.85;16.88;;;;;;;;;;5079838;28;20119;-61
2021/12/15 07:55:34;;;;;;;44.22;16.70;;;;;;;;;;5099005;28;20044;-61
2021/12/15 07:58:02;;;;;;;40.33;15.82;;;;;;;;;;5081201;28;20429;-61
2021/12/15 08:00:28;;;;;;;40.30;16.35;;;;;;;;;;5087201;28;20375;-61
2021/12/15 08:02:55;;;;;;;38.78;15.93;;;;;;;;;;5086029;28;20046;-61
2021/12/15 08:05:22;;;;;;;39.33;15.25;;;;;;;;;;5090200;28;20095;-60
2021/12/15 08:07:48;;;;;;;31.35;13.90;;;;;;;;;;5086629;28;20441;-61
2021/12/15 08:10:15;;;;;;;43.40;16.02;;;;;;;;;;5099138;28;20478;-61
2021/12/15 08:12:42;;;;;;;35.42;14.65;;;;;;;;;;5101273;27;20105;-61
2021/12/15 08:15:09;;;;;;;31.67;13.35;;;;;;;;;;5101744;28;20044;-61
2021/12/15 08:17:36;;;;;;;27.98;12.60;;;;;;;;;;5103213;28;20075;-61
2021/12/15 08:20:04;;;;;;;39.83;13.38;;;;;;;;;;5099058;28;20099;-61
2021/12/15 08:22:30;;;;;;;32.53;13.35;;;;;;;;;;5095313;28;20137;-61
2021/12/15 08:24:56;;;;;;;36.47;13.13;;;;;;;;;;5094851;28;20039;-61
2021/12/15 08:27:23;;;;;;;28.63;12.20;;;;;;;;;;5093157;28;20032;-61
2021/12/15 08:29:49;;;;;;;42.80;14.07;;;;;;;;;;5089973;28;20123;-61
2021/12/15 08:32:15;;;;;;;36.13;15.50;;;;;;;;;;5091244;28;20544;-61
2021/12/15 08:34:41;;;;;;;46.92;17.90;;;;;;;;;;5094320;28;20040;-61
2021/12/15 08:37:13;;;;;;;46.55;17.60;;;;;;;;;;5095117;28;20383;-61
2021/12/15 08:39:40;;;;;;;45.80;19.10;;;;;;;;;;5095161;28;20089;-61
2021/12/15 08:42:06;;;;;;;51.72;20.67;;;;;;;;;;5093505;28;20118;-61
2021/12/15 08:44:33;;;;;;;54.63;22.23;;;;;;;;;;5087916;28;20060;-61
2021/12/15 08:46:59;;;;;;;59.88;23.48;;;;;;;;;;5092326;28;20055;-61
2021/12/15 08:49:25;;;;;;;59.67;23.10;;;;;;;;;;5089864;28;20043;-61
2021/12/15 08:51:52;;;;;;;58.05;22.35;;;;;;;;;;5094542;28;20086;-61
2021/12/15 08:54:20;;;;;;;65.40;24.45;;;;;;;;;;5097108;27;20111;-61
2021/12/15 08:56:46;;;;;;;59.10;23.17;;;;;;;;;;5091899;28;20186;-61
2021/12/15 08:59:13;;;;;;;53.22;24.52;;;;;;;;;;5092970;28;20085;-61
2021/12/15 09:01:40;;;;;;;58.88;24.00;;;;;;;;;;5087410;28;20055;-61
2021/12/15 09:04:07;;;;;;;50.95;21.92;;;;;;;;;;5091848;28;20040;-61
2021/12/15 09:06:35;;;;;;;55.60;23.13;;;;;;;;;;5091493;28;20082;-61
2021/12/15 09:09:01;;;;;;;52.38;23.02;;;;;;;;;;5084821;28;20060;-60
2021/12/15 09:11:28;;;;;;;50.55;22.20;;;;;;;;;;5087792;28;20420;-61
2021/12/15 09:13:55;;;;;;;55.72;22.10;;;;;;;;;;5093054;28;20376;-61
2021/12/15 09:16:22;;;;;;;59.17;21.90;;;;;;;;;;5088045;28;20074;-61
2021/12/15 09:18:50;;;;;;;64.47;23.98;;;;;;;;;;5084746;28;20048;-61
2021/12/15 09:21:17;;;;;;;54.78;22.05;;;;;;;;;;5085858;28;20119;-61
2021/12/15 09:23:44;;;;;;;56.58;22.25;;;;;;;;;;5090792;28;20044;-60
2021/12/15 09:26:11;;;;;;;52.97;21.33;;;;;;;;;;5096819;28;20111;-60
2021/12/15 09:28:37;;;;;;;44.45;18.60;;;;;;;;;;5092154;28;20049;-61
2021/12/15 09:31:05;;;;;;;51.90;19.95;;;;;;;;;;5093270;28;20067;-61
2021/12/15 09:33:33;;;;;;;39.47;17.23;;;;;;;;;;5084919;28;20055;-61
2021/12/15 09:36:00;;;;;;;34.38;18.38;;;;;;;;;;5100889;28;20045;-61
2021/12/15 09:38:26;;;;;;;46.63;18.85;;;;;;;;;;5087929;28;20373;-60
2021/12/15 09:40:54;;;;;;;38.00;17.15;;;;;;;;;;5087789;28;20459;-60
2021/12/15 09:43:21;;;;;;;40.67;17.67;;;;;;;;;;5085555;28;20115;-60
2021/12/15 09:45:53;;;;;;;36.00;15.48;;;;;;;;;;5085015;28;20068;-60
2021/12/15 10:04:28;;;;;;;32.15;15.45;;;;;;;;;;5104594;28;20048;-61
2021/12/15 10:07:18;;;;;;;30.88;12.73;;;;;;;;;;5089092;28;20052;-61
2021/12/15 10:18:29;;;;;;;26.58;11.13;;;;;;;;;;5090983;28;20188;-61
2021/12/15 10:20:56;;;;;;;29.92;11.40;;;;;;;;;;5089435;28;20047;-61
2021/12/15 10:23:29;;;;;;;26.65;10.95;;;;;;;;;;5089348;28;20085;-60
2021/12/15 10:25:57;;;;;;;22.95;10.27;;;;;;;;;;5090023;28;20048;-61
2021/12/15 10:28:26;;;;;;;26.30;9.77;;;;;;;;;;5088678;28;20044;-61
2021/12/15 10:30:55;;;;;;;28.58;10.88;;;;;;;;;;5087143;28;20043;-61
2021/12/15 10:33:23;;;;;;;23.27;10.57;;;;;;;;;;5089657;28;20036;-61
2021/12/15 10:35:51;;;;;;;33.72;11.98;;;;;;;;;;5089394;28;20040;-61
2021/12/15 10:38:20;;;;;;;29.95;12.43;;;;;;;;;;5090911;28;20399;-61
2021/12/15 10:40:48;;;;;;;27.95;11.85;;;;;;;;;;5088309;28;20045;-61
2021/12/15 10:43:15;;;;;;;29.42;12.15;;;;;;;;;;5093108;28;20055;-61
2021/12/15 10:45:43;;;;;;;23.15;10.85;;;;;;;;;;5091174;28;20071;-61
2021/12/15 10:48:15;;;;;;;27.65;10.80;;;;;;;;;;5091496;28;20082;-60
2021/12/15 10:50:42;;;;;;;24.08;10.10;;;;;;;;;;5091076;28;20447;-60
2021/12/15 10:53:09;;;;;;;32.47;12.27;;;;;;;;;;5086343;28;20046;-60
2021/12/15 10:55:36;;;;;;;23.80;9.88;;;;;;;;;;5085916;28;20048;-61
2021/12/15 10:58:22;;;;;;;30.38;10.05;;;;;;;;;;5091592;28;20115;-61
2021/12/15 11:00:49;;;;;;;32.08;10.95;;;;;;;;;;5094127;28;20032;-60
2021/12/15 11:03:17;;;;;;;24.05;8.52;;;;;;;;;;5087142;28;20098;-61
2021/12/15 11:05:43;;;;;;;20.65;8.45;;;;;;;;;;5090961;28;20458;-61
2021/12/15 11:08:09;;;;;;;20.08;7.95;;;;;;;;;;5091623;28;20040;-61
2021/12/15 11:10:38;;;;;;;20.90;7.30;;;;;;;;;;5089932;28;20474;-61
2021/12/15 11:13:06;;;;;;;17.50;5.28;;;;;;;;;;5094026;28;20048;-61
2021/12/15 11:15:39;;;;;;;18.60;5.03;;;;;;;;;;5093549;28;20051;-61
2021/12/15 11:18:17;;;;;;;19.30;6.22;;;;;;;;;;5090137;28;20047;-61
2021/12/15 11:20:47;;;;;;;21.58;4.95;;;;;;;;;;5093450;28;20043;-61
2021/12/15 11:23:14;;;;;;;20.80;5.93;;;;;;;;;;5092350;28;20072;-61
2021/12/15 11:25:47;;;;;;;14.18;4.82;;;;;;;;;;5087025;28;20044;-60
2021/12/15 11:28:19;;;;;;;17.33;4.57;;;;;;;;;;5087433;28;20062;-61
2021/12/15 11:30:49;;;;;;;20.52;6.10;;;;;;;;;;5090614;28;20121;-61
2021/12/15 11:33:26;;;;;;;19.50;4.78;;;;;;;;;;5088241;28;20693;-61
2021/12/15 11:35:55;;;;;;;20.70;4.20;;;;;;;;;;5093330;28;20094;-61
2021/12/15 11:38:24;;;;;;;13.18;3.92;;;;;;;;;;5089866;28;20498;-61
2021/12/15 11:40:54;;;;;;;15.90;4.45;;;;;;;;;;5086384;28;20506;-61
2021/12/15 11:43:28;;;;;;;13.50;4.10;;;;;;;;;;5084864;28;20032;-61
2021/12/15 11:45:55;;;;;;;11.32;3.38;;;;;;;;;;5086368;28;20048;-61
2021/12/15 11:48:23;;;;;;;16.88;4.40;;;;;;;;;;5091104;28;20504;-61
2021/12/15 11:50:50;;;;;;;9.20;3.17;;;;;;;;;;5087398;28;20127;-61
2021/12/15 11:53:30;;;;;;;16.33;2.58;;;;;;;;;;5088747;28;20055;-61
2021/12/15 11:56:10;;;;;;;11.38;2.58;;;;;;;;;;5086812;28;20051;-61
2021/12/15 11:58:37;;;;;;;13.55;2.95;;;;;;;;;;5083859;28;20051;-62
2021/12/15 12:01:03;;;;;;;17.13;3.00;;;;;;;;;;5086347;28;20415;-61
2021/12/15 12:03:29;;;;;;;10.20;2.42;;;;;;;;;;5089275;28;20490;-61
2021/12/15 12:05:56;;;;;;;12.88;2.78;;;;;;;;;;5089197;28;20048;-62
2021/12/15 12:08:23;;;;;;;7.63;2.17;;;;;;;;;;5086033;28;20039;-61
2021/12/15 12:10:51;;;;;;;13.88;2.72;;;;;;;;;;5099482;28;20039;-61
2021/12/15 12:13:27;;;;;;;11.50;2.30;;;;;;;;;;5086913;28;20063;-61
2021/12/15 12:15:56;;;;;;;10.73;2.17;;;;;;;;;;5072784;28;20036;-61
2021/12/15 12:18:23;;;;;;;10.18;2.10;;;;;;;;;;5075831;28;20341;-60
2021/12/15 12:20:51;;;;;;;9.85;2.45;;;;;;;;;;5070622;28;20040;-61
2021/12/15 12:23:19;;;;;;;11.82;2.92;;;;;;;;;;5083357;28;20047;-60
2021/12/15 12:25:47;;;;;;;8.90;2.65;;;;;;;;;;5071179;28;20042;-60
2021/12/15 12:28:16;;;;;;;11.85;2.25;;;;;;;;;;5070366;28;20418;-61
2021/12/15 12:30:44;;;;;;;8.65;1.83;;;;;;;;;;5077837;28;20048;-61
2021/12/15 12:33:12;;;;;;;7.35;2.08;;;;;;;;;;5089853;28;20044;-60
2021/12/15 12:35:40;;;;;;;7.93;2.28;;;;;;;;;;5089370;28;20123;-61
2021/12/15 12:38:10;;;;;;;7.95;2.25;;;;;;;;;;5076705;28;20037;-61
2021/12/15 12:40:39;;;;;;;9.52;2.00;;;;;;;;;;5070900;28;20504;-61
2021/12/15 12:43:16;;;;;;;6.50;1.98;;;;;;;;;;5079651;28;20063;-61
2021/12/15 12:45:43;;;;;;;11.55;2.80;;;;;;;;;;5072746;28;20049;-61
2021/12/15 12:48:33;;;;;;;9.25;2.17;;;;;;;;;;5070870;28;20072;-61
2021/12/15 12:57:54;;;;;;;6.35;2.25;;;;;;;;;;5070527;28;20040;-61
2021/12/15 12:59:30;;;;;;;5.88;1.70;;;;;;;;;;5074663;28;20051;-61
2021/12/15 13:01:58;;;;;;;11.02;2.08;;;;;;;;;;5076901;28;20118;-61
2021/12/15 13:04:35;;;;;;;10.73;3.03;;;;;;;;;;5076879;28;20033;-60
2021/12/15 13:07:01;;;;;;;7.30;1.88;;;;;;;;;;5092136;28;20048;-60
2021/12/15 13:09:42;;;;;;;7.40;1.58;;;;;;;;;;5077239;28;20119;-60
2021/12/15 13:12:19;;;;;;;8.15;1.73;;;;;;;;;;5075954;28;20123;-60
2021/12/15 13:14:46;;;;;;;9.98;2.50;;;;;;;;;;5077884;28;20052;-61
2021/12/15 13:17:18;;;;;;;10.93;3.08;;;;;;;;;;5074529;28;20094;-61
2021/12/15 13:19:45;;;;;;;8.73;1.92;;;;;;;;;;5076653;28;20045;-60
2021/12/15 13:30:39;;;;;;;10.90;1.80;;;;;;;;;;5089993;28;20068;-60
2021/12/15 13:33:12;;;;;;;15.88;2.13;;;;;;;;;;5090518;28;20047;-61
2021/12/15 13:35:41;;;;;;;8.93;2.13;;;;;;;;;;5089793;28;20143;-60
2021/12/15 13:38:07;;;;;;;5.70;1.52;;;;;;;;;;5088437;28;20043;-60
2021/12/15 13:40:53;;;;;;;4.22;1.20;;;;;;;;;;5090871;28;20040;-60
2021/12/15 13:43:38;;;;;;;9.23;1.50;;;;;;;;;;5089893;28;20044;-60
2021/12/15 13:46:06;;;;;;;6.03;1.45;;;;;;;;;;5089808;28;20051;-61
2021/12/15 13:48:51;;;;;;;5.25;1.20;;;;;;;;;;5088782;28;20540;-60
2021/12/15 13:51:37;;;;;;;5.72;1.15;;;;;;;;;;5084226;28;20086;-60
2021/12/15 13:54:03;;;;;;;7.50;1.30;;;;;;;;;;5075256;28;20052;-62
2021/12/15 13:56:46;;;;;;;5.88;1.75;;;;;;;;;;5080147;28;20052;-61
2021/12/15 13:59:30;;;;;;;6.20;1.38;;;;;;;;;;5088947;28;20036;-62
2021/12/15 14:02:12;;;;;;;11.88;2.03;;;;;;;;;;5087237;28;20040;-61
2021/12/15 14:04:44;;;;;;;9.48;2.30;;;;;;;;;;5097521;28;20052;-61
2021/12/15 14:07:28;;;;;;;6.13;1.60;;;;;;;;;;5089552;28;20070;-61
2021/12/15 14:09:56;;;;;;;6.57;1.50;;;;;;;;;;5088432;28;20040;-61
2021/12/15 14:12:55;;;;;;;6.50;1.33;;;;;;;;;;5086408;28;20044;-61
2021/12/15 14:15:26;;;;;;;4.30;1.50;;;;;;;;;;5080926;28;20051;-62
2021/12/15 14:17:57;;;;;;;10.73;1.85;;;;;;;;;;5084864;28;20380;-62
2021/12/15 14:20:24;;;;;;;6.75;1.63;;;;;;;;;;5089168;28;20129;-61
2021/12/15 14:23:00;;;;;;;6.22;1.95;;;;;;;;;;5085013;28;20050;-62
2021/12/15 14:25:27;;;;;;;5.32;1.75;;;;;;;;;;5091802;28;20085;-61
2021/12/15 14:27:53;;;;;;;4.63;1.42;;;;;;;;;;5090051;28;20136;-62
2021/12/15 14:30:20;;;;;;;6.20;1.80;;;;;;;;;;5092495;28;20462;-62
2021/12/15 14:32:47;;;;;;;10.38;1.92;;;;;;;;;;5090911;28;20040;-61
2021/12/15 14:35:21;;;;;;;7.30;1.63;;;;;;;;;;5091094;28;20070;-62
2021/12/15 14:37:47;;;;;;;8.50;2.63;;;;;;;;;;5093906;28;20040;-61
2021/12/15 14:40:13;;;;;;;7.57;1.77;;;;;;;;;;5094225;28;20077;-61
2021/12/15 14:42:42;;;;;;;8.60;2.00;;;;;;;;;;5085324;28;20036;-61
2021/12/15 14:45:09;;;;;;;13.10;2.45;;;;;;;;;;5091803;28;20036;-61
2021/12/15 14:47:36;;;;;;;4.50;1.30;;;;;;;;;;5090368;28;20407;-61
2021/12/15 14:50:11;;;;;;;5.93;1.67;;;;;;;;;;5090380;28;20360;-61
2021/12/15 14:52:39;;;;;;;9.85;1.83;;;;;;;;;;5096859;28;20083;-61
2021/12/15 14:55:08;;;;;;;6.07;2.03;;;;;;;;;;5090656;28;20044;-61
2021/12/15 14:57:34;;;;;;;7.75;1.55;;;;;;;;;;5093048;28;20491;-61
2021/12/15 15:00:06;;;;;;;8.27;2.10;;;;;;;;;;5087383;28;20040;-61
2021/12/15 15:02:34;;;;;;;6.47;2.05;;;;;;;;;;5086484;28;20429;-61
2021/12/15 15:05:02;;;;;;;6.18;1.40;;;;;;;;;;5089287;28;20079;-62
2021/12/15 15:07:31;;;;;;;6.47;1.33;;;;;;;;;;5091651;28;20167;-61
2021/12/15 15:09:58;;;;;;;5.30;1.50;;;;;;;;;;5087544;28;20479;-62
2021/12/15 15:12:26;;;;;;;5.45;1.30;;;;;;;;;;5087592;28;20047;-62
2021/12/15 15:14:55;;;;;;;5.82;1.40;;;;;;;;;;5086893;28;20051;-61
2021/12/15 15:17:28;;;;;;;4.82;1.67;;;;;;;;;;5092598;28;20109;-61
2021/12/15 15:19:59;;;;;;;5.10;1.17;;;;;;;;;;5097647;28;20059;-62
2021/12/15 15:22:28;;;;;;;7.10;2.20;;;;;;;;;;5089849;28;20047;-61
2021/12/15 15:24:55;;;;;;;7.07;1.20;;;;;;;;;;5084536;28;20036;-61
2021/12/15 15:27:22;;;;;;;8.43;2.03;;;;;;;;;;5083035;28;20092;-62
2021/12/15 15:29:53;;;;;;;8.45;1.40;;;;;;;;;;5087507;28;20075;-62
2021/12/15 15:32:22;;;;;;;5.88;1.65;;;;;;;;;;5081620;28;20040;-61
2021/12/15 15:34:50;;;;;;;5.25;1.30;;;;;;;;;;5086317;28;20487;-61
2021/12/15 15:37:23;;;;;;;5.40;1.10;;;;;;;;;;5084840;28;20487;-61
2021/12/15 15:40:12;;;;;;;14.45;1.88;;;;;;;;;;5085119;28;20055;-61
2021/12/15 15:42:39;;;;;;;6.43;1.95;;;;;;;;;;5079434;28;20052;-61